Choupique, Louisiana
Current Conditions -  °F | °C
As of 4:55 AM on Thursday 27 Nov 2014 (Local Time) from KOPL Reporting Station
Clear Clear  
Wind Chill: 37°   Ceiling: Unl
Heat Index: 41°   Visibility: 10mi
Dew Point: 38°   Wind: 6mph
Humidity: 91%   Direction: 350°N
Pressure: 30.38"   Gusts: NA
Location:  30.9227°N, 91.987°W
Report Text: KOPL 271055Z AUTO 35005KT 10SM CLR 05/04 A3038 RMK AO2 T00500036
Loading
Personal Weather Stations






























Interactive Weather Map New forecast layout! Learn more

10-Day Weather Forecast

Advertisements
Track Severe Weather on mobile